createdAt,value
2017-04-25T00:00:40.902Z,8.86
2017-04-25T00:01:39.638Z,8.89
2017-04-25T00:02:37.622Z,6.93
2017-04-25T00:03:36.275Z,7.71
2017-04-25T00:04:34.183Z,7.29
2017-04-25T00:05:32.104Z,7.10
2017-04-25T00:06:30.030Z,7.61
2017-04-25T00:07:28.006Z,7.54
2017-04-25T00:08:25.977Z,9.37
2017-04-25T00:09:23.909Z,6.83
2017-04-25T00:10:22.562Z,7.90
2017-04-25T00:11:20.478Z,7.87
2017-04-25T00:12:18.394Z,7.91
2017-04-25T00:13:16.295Z,7.37
2017-04-25T00:14:14.230Z,7.57
2017-04-25T00:15:12.123Z,8.90
2017-04-25T00:16:10.785Z,7.33
2017-04-25T00:17:08.671Z,7.36
2017-04-25T00:18:06.574Z,7.53
2017-04-25T00:19:04.466Z,7.71
2017-04-25T00:20:03.151Z,7.70
2017-04-25T00:21:01.046Z,8.76
2017-04-25T00:21:59.019Z,7.17
2017-04-25T00:22:56.978Z,7.49
2017-04-25T00:23:55.672Z,7.84
2017-04-25T00:24:53.655Z,7.77
2017-04-25T00:25:51.579Z,7.19
2017-04-25T00:26:49.453Z,7.66
2017-04-25T00:27:47.354Z,7.03
2017-04-25T00:28:45.267Z,6.79
2017-04-25T00:29:43.161Z,7.94
2017-04-25T00:30:45.746Z,8.69
2017-04-25T00:31:43.949Z,8.44
2017-04-25T00:32:41.826Z,7.67
2017-04-25T00:33:39.733Z,7.74
2017-04-25T00:34:37.666Z,7.87
2017-04-25T00:35:35.591Z,7.63
2017-04-25T00:36:33.575Z,7.87
2017-04-25T00:37:31.470Z,7.60
2017-04-25T00:38:29.401Z,7.53
2017-04-25T00:39:27.350Z,7.24
2017-04-25T00:40:25.298Z,8.74
2017-04-25T00:41:23.285Z,8.26
2017-04-25T00:42:21.182Z,7.53
2017-04-25T00:43:19.138Z,7.07
2017-04-25T00:44:17.066Z,7.57
2017-04-25T00:45:14.960Z,8.59
2017-04-25T00:46:12.858Z,7.56
2017-04-25T00:47:10.798Z,8.60
2017-04-25T00:48:09.370Z,8.50
2017-04-25T00:49:07.303Z,8.17
2017-04-25T00:50:05.206Z,7.43
2017-04-25T00:51:03.840Z,7.89
2017-04-25T00:52:01.787Z,8.06
2017-04-25T00:52:59.743Z,8.47
2017-04-25T00:53:57.731Z,8.34
2017-04-25T00:54:56.428Z,7.29
2017-04-25T00:55:54.437Z,7.80
2017-04-25T00:56:52.331Z,7.16
2017-04-25T00:57:50.301Z,7.29
2017-04-25T00:58:48.190Z,7.61
2017-04-25T00:59:46.098Z,7.74
2017-04-25T01:00:44.006Z,7.30
2017-04-25T01:01:41.887Z,7.06
2017-04-25T01:02:39.823Z,7.90
2017-04-25T01:03:38.511Z,7.26
2017-04-25T01:04:36.418Z,6.81
2017-04-25T01:05:34.318Z,7.11
2017-04-25T01:06:32.215Z,7.39
2017-04-25T01:07:30.118Z,7.94
2017-04-25T01:08:28.032Z,7.77
2017-04-25T01:09:26.035Z,7.16
2017-04-25T01:10:24.023Z,6.74
2017-04-25T01:11:21.914Z,7.84
2017-04-25T01:12:19.818Z,6.74
2017-04-25T01:13:17.927Z,7.33
2017-04-25T01:14:16.551Z,7.09
2017-04-25T01:15:14.459Z,7.23
2017-04-25T01:16:12.426Z,7.20
2017-04-25T01:17:10.314Z,7.50
2017-04-25T01:18:08.214Z,7.59
2017-04-25T01:19:06.104Z,7.16
2017-04-25T01:20:04.014Z,7.19
2017-04-25T01:21:01.922Z,7.53
2017-04-25T01:22:00.190Z,6.60
2017-04-25T01:22:58.095Z,7.39
2017-04-25T01:23:56.066Z,7.61
2017-04-25T01:24:54.010Z,7.59
2017-04-25T01:25:51.891Z,6.09
2017-04-25T01:26:49.795Z,7.06
2017-04-25T01:27:47.729Z,7.30
2017-04-25T01:28:46.370Z,7.46
2017-04-25T01:29:44.266Z,7.04
2017-04-25T01:30:42.163Z,6.96
2017-04-25T01:31:40.046Z,7.17
2017-04-25T01:32:38.672Z,7.33
2017-04-25T01:33:36.594Z,6.90
2017-04-25T01:34:34.495Z,7.10
2017-04-25T01:35:32.390Z,6.93
2017-04-25T01:36:30.311Z,7.49
2017-04-25T01:37:28.273Z,7.61
2017-04-25T01:38:26.951Z,7.61
2017-04-25T01:39:25.711Z,7.86
2017-04-25T01:40:23.710Z,7.24
2017-04-25T01:41:21.611Z,7.31
2017-04-25T01:42:19.490Z,7.90
2017-04-25T01:43:18.118Z,7.13
2017-04-25T01:44:16.059Z,6.84
2017-04-25T01:45:14.682Z,6.94
2017-04-25T01:46:13.323Z,7.73
2017-04-25T01:47:14.023Z,7.06
2017-04-25T01:48:11.962Z,6.27
2017-04-25T01:49:09.866Z,7.09
2017-04-25T01:50:08.558Z,6.83
2017-04-25T01:51:06.471Z,7.20
2017-04-25T01:52:04.411Z,6.94
2017-04-25T01:53:02.312Z,7.83
2017-04-25T01:54:00.223Z,7.13
2017-04-25T01:54:58.290Z,6.91
2017-04-25T01:55:56.981Z,7.74
2017-04-25T01:56:54.922Z,6.81
2017-04-25T01:57:53.570Z,6.76
2017-04-25T01:58:51.479Z,7.90
2017-04-25T01:59:49.386Z,7.80
2017-04-25T02:00:47.330Z,7.34
2017-04-25T02:01:45.235Z,6.90
2017-04-25T02:02:43.164Z,7.34
2017-04-25T02:03:41.070Z,8.20
2017-04-25T02:04:38.996Z,8.06
2017-04-25T02:05:36.975Z,6.91
2017-04-25T02:06:34.895Z,7.33
2017-04-25T02:07:32.804Z,7.31
2017-04-25T02:08:30.723Z,7.56
2017-04-25T02:09:28.699Z,7.74
2017-04-25T02:10:26.675Z,7.56
2017-04-25T02:11:25.347Z,7.39
2017-04-25T02:12:24.006Z,8.21
2017-04-25T02:13:21.940Z,6.21
2017-04-25T02:14:19.843Z,7.66
2017-04-25T02:15:17.807Z,7.81
2017-04-25T02:16:15.714Z,7.24
2017-04-25T02:17:13.947Z,7.71
2017-04-25T02:18:11.835Z,7.47
2017-04-25T02:19:10.479Z,6.74
2017-04-25T02:20:08.499Z,7.40
2017-04-25T02:21:06.451Z,7.36
2017-04-25T02:22:04.363Z,7.24
2017-04-25T02:23:03.029Z,7.40
2017-04-25T02:24:01.681Z,7.17
2017-04-25T02:24:59.587Z,7.87
2017-04-25T02:25:57.615Z,8.30
2017-04-25T02:26:55.559Z,8.20
2017-04-25T02:27:54.254Z,7.96
2017-04-25T02:28:52.164Z,7.49
2017-04-25T02:29:50.079Z,7.20
2017-04-25T02:30:48.023Z,7.51
2017-04-25T02:31:46.734Z,7.51
2017-04-25T02:32:44.628Z,7.67
2017-04-25T02:33:42.531Z,8.43
2017-04-25T02:34:40.419Z,7.40
2017-04-25T02:35:38.327Z,7.40
2017-04-25T02:36:36.275Z,6.96
2017-04-25T02:37:34.199Z,7.63
2017-04-25T02:38:32.119Z,8.00
2017-04-25T02:39:30.795Z,7.56
2017-04-25T02:40:29.514Z,7.71
2017-04-25T02:41:27.515Z,6.23
2017-04-25T02:42:26.172Z,8.43
2017-04-25T02:43:24.151Z,7.86
2017-04-25T02:44:22.797Z,7.27
2017-04-25T02:45:20.710Z,8.61
2017-04-25T02:46:18.623Z,7.41
2017-04-25T02:47:17.302Z,7.29
2017-04-25T02:48:15.209Z,8.06
2017-04-25T02:49:13.114Z,7.41
2017-04-25T02:50:11.074Z,7.86
2017-04-25T02:51:09.027Z,7.77
2017-04-25T02:52:06.980Z,8.07
2017-04-25T02:53:04.887Z,7.24
2017-04-25T02:54:02.827Z,7.86
2017-04-25T02:56:05.387Z,6.91
2017-04-25T02:57:03.374Z,7.01
2017-04-25T02:58:02.012Z,7.19
2017-04-25T02:58:59.926Z,7.44
2017-04-25T02:59:57.923Z,7.99
2017-04-25T03:00:55.881Z,7.51
2017-04-25T03:01:54.179Z,7.70
2017-04-25T03:02:52.127Z,7.57
2017-04-25T03:03:50.023Z,8.14
2017-04-25T03:04:47.954Z,8.07
2017-04-25T03:05:45.842Z,8.73
2017-04-25T03:06:43.787Z,7.99
2017-04-25T03:07:41.739Z,7.64
2017-04-25T03:08:39.646Z,8.23
2017-04-25T03:09:37.555Z,7.94
2017-04-25T03:10:35.446Z,8.63
2017-04-25T03:11:33.334Z,8.70
2017-04-25T03:12:31.245Z,7.91
2017-04-25T03:13:29.246Z,8.17
2017-04-25T03:14:27.179Z,7.09
2017-04-25T03:15:25.116Z,7.16
2017-04-25T03:16:23.380Z,7.76
2017-04-25T03:17:21.303Z,7.27
2017-04-25T03:18:19.976Z,7.37
2017-04-25T03:19:18.614Z,7.20
2017-04-25T03:20:16.511Z,7.54
2017-04-25T03:21:15.147Z,7.59
2017-04-25T03:22:13.067Z,7.11
2017-04-25T03:23:11.006Z,7.39
2017-04-25T03:24:08.908Z,8.23
2017-04-25T03:25:07.619Z,7.23
2017-04-25T03:26:05.515Z,7.16
2017-04-25T03:27:03.419Z,7.59
2017-04-25T03:28:01.327Z,7.33
2017-04-25T03:28:59.265Z,8.20
2017-04-25T03:29:57.239Z,8.09
2017-04-25T03:30:55.191Z,8.41
2017-04-25T03:31:53.098Z,7.70
2017-04-25T03:32:51.037Z,7.47
2017-04-25T03:33:48.980Z,8.46
2017-04-25T03:34:46.891Z,8.27
2017-04-25T03:35:44.833Z,8.09
2017-04-25T03:36:42.731Z,7.37
2017-04-25T03:37:41.368Z,8.16
2017-04-25T03:38:39.336Z,8.77
2017-04-25T03:39:37.979Z,8.39
2017-04-25T03:40:35.894Z,8.01
2017-04-25T03:41:33.811Z,7.90
2017-04-25T03:42:32.459Z,8.16
2017-04-25T03:43:30.375Z,7.66
2017-04-25T03:44:28.336Z,7.84
2017-04-25T03:45:26.282Z,7.86
2017-04-25T03:46:24.286Z,8.16
2017-04-25T03:47:22.202Z,8.16
2017-04-25T03:48:20.111Z,7.87
2017-04-25T03:49:18.744Z,7.56
2017-04-25T03:50:16.693Z,8.14
2017-04-25T03:51:14.618Z,7.91
2017-04-25T03:52:12.498Z,7.30
2017-04-25T03:53:10.399Z,7.86
2017-04-25T03:54:08.295Z,7.76
2017-04-25T03:55:07.175Z,7.27
2017-04-25T03:56:05.099Z,7.64
2017-04-25T03:57:03.010Z,7.30
2017-04-25T03:58:01.638Z,8.17
2017-04-25T03:58:59.907Z,6.97
2017-04-25T03:59:57.986Z,8.36
2017-04-25T04:00:55.992Z,7.44
2017-04-25T04:01:53.946Z,8.47
2017-04-25T04:02:51.847Z,9.10
2017-04-25T04:03:49.752Z,8.89
2017-04-25T04:04:47.687Z,8.74
2017-04-25T04:05:45.627Z,7.96
2017-04-25T04:06:44.311Z,8.66
2017-04-25T04:07:42.235Z,8.14
2017-04-25T04:08:40.912Z,8.06
2017-04-25T04:09:39.571Z,8.93
2017-04-25T04:10:38.245Z,9.11
2017-04-25T04:11:36.937Z,8.51
2017-04-25T04:12:34.831Z,8.84
2017-04-25T04:13:32.767Z,8.66
2017-04-25T04:14:30.667Z,7.53
2017-04-25T04:15:29.319Z,8.20
2017-04-25T04:16:27.303Z,8.13
2017-04-25T04:17:25.291Z,7.70
2017-04-25T04:18:23.264Z,8.14
2017-04-25T04:19:21.164Z,8.40
2017-04-25T04:20:19.823Z,9.03
2017-04-25T04:21:18.468Z,8.80
2017-04-25T04:22:17.063Z,8.21
2017-04-25T04:23:15.728Z,9.07
2017-04-25T04:24:14.476Z,8.67
2017-04-25T04:25:12.403Z,9.16
2017-04-25T04:26:10.325Z,8.91
2017-04-25T04:27:08.243Z,9.24
2017-04-25T04:28:06.188Z,8.31
2017-04-25T04:29:04.219Z,8.54
2017-04-25T04:30:02.124Z,8.83
2017-04-25T04:31:00.767Z,8.66
2017-04-25T04:31:58.719Z,8.47
2017-04-25T04:32:56.676Z,10.04
2017-04-25T04:33:54.759Z,8.69
2017-04-25T04:34:53.436Z,8.11
2017-04-25T04:35:51.362Z,8.24
2017-04-25T04:36:49.267Z,9.24
2017-04-25T04:37:47.158Z,10.91
2017-04-25T04:38:45.111Z,11.37
2017-04-25T04:39:43.028Z,11.14
2017-04-25T04:40:40.952Z,10.97
2017-04-25T04:41:38.887Z,11.26
2017-04-25T04:42:36.807Z,11.04
2017-04-25T04:43:35.019Z,12.24
2017-04-25T04:44:32.928Z,10.86
2017-04-25T04:45:30.836Z,12.24
2017-04-25T04:46:28.801Z,12.40
2017-04-25T04:47:26.748Z,12.17
2017-04-25T04:48:24.795Z,15.67
2017-04-25T04:49:22.700Z,13.09
2017-04-25T04:50:20.615Z,14.27
2017-04-25T04:51:18.527Z,13.16
2017-04-25T04:52:17.167Z,13.09
2017-04-25T04:53:15.063Z,13.56
2017-04-25T04:54:13.011Z,14.29
2017-04-25T04:55:10.910Z,15.56
2017-04-25T04:56:08.824Z,19.90
2017-04-25T04:57:06.736Z,27.00
2017-04-25T04:58:04.633Z,24.10
2017-04-25T04:59:02.610Z,20.83
2017-04-25T05:00:00.510Z,20.63
2017-04-25T05:00:59.201Z,20.71
2017-04-25T05:01:57.546Z,23.46
2017-04-25T05:02:55.506Z,22.64
2017-04-25T05:03:54.264Z,20.83
2017-04-25T05:04:52.959Z,20.10
2017-04-25T05:05:50.855Z,20.50
2017-04-25T05:06:48.772Z,20.77
2017-04-25T05:07:46.743Z,18.76
2017-04-25T05:08:44.664Z,19.61
2017-04-25T05:09:42.644Z,18.96
2017-04-25T05:10:40.558Z,20.23
2017-04-25T05:11:39.202Z,18.01
2017-04-25T05:12:37.110Z,16.80
2017-04-25T05:13:35.041Z,16.73
2017-04-25T05:14:33.009Z,16.89
2017-04-25T05:15:30.934Z,17.44
2017-04-25T05:16:29.641Z,15.56
2017-04-25T05:17:27.574Z,14.93
2017-04-25T05:18:25.607Z,14.26
2017-04-25T05:19:24.298Z,16.27
2017-04-25T05:20:22.263Z,12.39
2017-04-25T05:21:20.224Z,12.67
2017-04-25T05:22:18.182Z,12.60
2017-04-25T05:23:16.083Z,13.47
2017-04-25T05:24:13.992Z,12.74
2017-04-25T05:25:11.939Z,13.11
2017-04-25T05:26:09.924Z,11.46
2017-04-25T05:27:07.828Z,11.49
2017-04-25T05:28:05.786Z,11.06
2017-04-25T05:29:03.712Z,12.21
2017-04-25T05:30:02.376Z,11.53
2017-04-25T05:31:01.126Z,11.89
2017-04-25T05:31:59.135Z,13.01
2017-04-25T05:32:57.096Z,13.97
2017-04-25T05:33:55.110Z,14.26
2017-04-25T05:34:53.794Z,13.73
2017-04-25T05:35:52.526Z,12.39
2017-04-25T05:36:50.431Z,12.23
2017-04-25T05:37:48.315Z,14.17
2017-04-25T05:38:46.231Z,14.37
2017-04-25T05:39:44.137Z,15.00
2017-04-25T05:40:42.025Z,14.93
2017-04-25T05:41:40.720Z,14.24
2017-04-25T05:42:38.652Z,13.61
2017-04-25T05:43:36.572Z,15.00
2017-04-25T05:44:34.478Z,15.00
2017-04-25T05:45:32.387Z,14.57
2017-04-25T05:46:31.084Z,12.87
2017-04-25T05:47:29.007Z,11.37
2017-04-25T05:48:27.672Z,10.66
2017-04-25T05:49:26.347Z,13.47
2017-04-25T05:50:24.306Z,13.56
2017-04-25T05:51:22.987Z,13.36
2017-04-25T05:52:21.671Z,16.56
2017-04-25T05:53:19.591Z,15.41
2017-04-25T05:54:17.532Z,15.27
2017-04-25T05:55:15.451Z,13.34
2017-04-25T05:56:13.427Z,13.91
2017-04-25T05:57:11.322Z,14.31
2017-04-25T05:58:09.967Z,14.01
2017-04-25T05:59:07.867Z,13.96
2017-04-25T06:00:05.796Z,14.33
2017-04-25T06:01:03.714Z,15.91
2017-04-25T06:02:01.683Z,13.94
2017-04-25T06:02:59.654Z,16.59
2017-04-25T06:03:58.356Z,22.74
2017-04-25T06:04:56.323Z,19.24
2017-04-25T06:05:54.279Z,18.34
2017-04-25T06:06:52.207Z,14.34
2017-04-25T06:07:50.159Z,13.19
2017-04-25T06:08:48.077Z,13.29
2017-04-25T06:09:46.731Z,12.99
2017-04-25T06:10:44.639Z,12.37
2017-04-25T06:11:42.538Z,11.87
2017-04-25T06:12:40.475Z,14.33
2017-04-25T06:13:38.395Z,11.86
2017-04-25T06:14:36.316Z,14.07
2017-04-25T06:15:34.968Z,13.26
2017-04-25T06:16:32.873Z,12.11
2017-04-25T06:17:30.795Z,13.39
2017-04-25T06:18:28.782Z,13.07
2017-04-25T06:19:26.718Z,12.16
2017-04-25T06:20:24.668Z,12.49
2017-04-25T06:21:22.581Z,12.03
2017-04-25T06:22:20.496Z,12.47
2017-04-25T06:23:18.431Z,11.70
2017-04-25T06:24:16.347Z,11.36
2017-04-25T06:25:14.990Z,12.23
2017-04-25T06:26:12.883Z,13.47
2017-04-25T06:27:11.519Z,11.81
2017-04-25T06:28:09.479Z,10.71
2017-04-25T06:29:07.373Z,11.89
2017-04-25T06:30:05.318Z,12.17
2017-04-25T06:31:03.234Z,10.80
2017-04-25T06:32:01.142Z,10.11
2017-04-25T06:32:59.147Z,9.80
2017-04-25T06:33:57.169Z,10.71
2017-04-25T06:34:55.270Z,10.79
2017-04-25T06:35:53.267Z,10.89
2017-04-25T06:36:51.172Z,10.81
2017-04-25T06:37:49.813Z,10.49
2017-04-25T06:38:47.719Z,10.43
2017-04-25T06:39:45.650Z,10.89
2017-04-25T06:40:44.291Z,11.36
2017-04-25T06:41:42.211Z,10.67
2017-04-25T06:42:40.122Z,9.63
2017-04-25T06:43:38.781Z,11.64
2017-04-25T06:44:37.486Z,10.34
2017-04-25T06:45:35.402Z,10.60
2017-04-25T06:46:33.304Z,10.41
2017-04-25T06:47:31.227Z,10.81
2017-04-25T06:48:29.892Z,10.96
2017-04-25T06:49:28.638Z,10.63
2017-04-25T06:50:26.591Z,10.40
2017-04-25T06:51:24.540Z,11.51
2017-04-25T06:52:22.462Z,10.60
2017-04-25T06:53:20.362Z,10.77
2017-04-25T06:54:18.251Z,11.17
2017-04-25T06:55:16.199Z,10.87
2017-04-25T06:56:14.101Z,11.16
2017-04-25T06:57:11.995Z,10.60
2017-04-25T06:58:09.904Z,10.16
2017-04-25T06:59:07.806Z,11.89
2017-04-25T07:00:05.767Z,11.31
2017-04-25T07:01:03.726Z,10.80
2017-04-25T07:02:01.735Z,10.77
2017-04-25T07:02:59.679Z,10.69
2017-04-25T07:03:57.603Z,11.04
2017-04-25T07:04:55.525Z,12.50
2017-04-25T07:05:53.494Z,11.50
2017-04-25T07:06:51.428Z,11.50
2017-04-25T07:07:49.335Z,11.30
2017-04-25T07:08:47.261Z,12.11
2017-04-25T07:09:45.174Z,11.37
2017-04-25T07:10:43.834Z,11.86
2017-04-25T07:11:42.510Z,11.64
2017-04-25T07:12:41.149Z,10.44
2017-04-25T07:13:39.061Z,11.24
2017-04-25T07:14:36.966Z,10.67
2017-04-25T07:15:34.878Z,11.06
2017-04-25T07:16:32.839Z,11.84
2017-04-25T07:17:30.783Z,12.16
2017-04-25T07:18:28.697Z,10.90
2017-04-25T07:19:27.443Z,10.04
2017-04-25T07:20:25.394Z,11.47
2017-04-25T07:21:23.349Z,11.60
2017-04-25T07:22:22.007Z,11.51
2017-04-25T07:23:19.943Z,12.49
2017-04-25T07:24:17.855Z,11.79
2017-04-25T07:25:15.754Z,11.64
2017-04-25T07:26:13.647Z,11.01
2017-04-25T07:27:12.324Z,11.36
2017-04-25T07:28:10.970Z,12.66
2017-04-25T07:29:08.871Z,12.51
2017-04-25T07:30:06.763Z,13.74
2017-04-25T07:31:04.698Z,14.94
2017-04-25T07:32:02.614Z,14.90
2017-04-25T07:33:00.511Z,12.74
2017-04-25T07:33:58.494Z,13.30
2017-04-25T07:34:56.436Z,13.91
2017-04-25T07:35:54.378Z,12.77
2017-04-25T07:36:52.281Z,14.17
2017-04-25T07:37:50.184Z,16.41
2017-04-25T07:38:48.115Z,14.50
2017-04-25T07:39:46.019Z,13.54
2017-04-25T07:40:44.672Z,14.36
2017-04-25T07:41:43.443Z,14.21
2017-04-25T07:42:41.371Z,14.87
2017-04-25T07:43:39.274Z,14.30
2017-04-25T07:44:37.218Z,15.44
2017-04-25T07:45:35.875Z,14.46
2017-04-25T07:46:34.528Z,13.46
2017-04-25T07:47:32.438Z,14.26
2017-04-25T07:48:30.423Z,14.50
2017-04-25T07:49:28.456Z,13.27
2017-04-25T07:50:26.418Z,14.31
2017-04-25T07:51:24.374Z,13.50
2017-04-25T07:52:22.290Z,13.16
2017-04-25T07:53:20.188Z,12.33
2017-04-25T07:54:18.414Z,13.34
2017-04-25T07:55:16.315Z,15.01
2017-04-25T07:56:14.980Z,15.30
2017-04-25T07:57:12.916Z,13.67
2017-04-25T07:58:10.815Z,12.47
2017-04-25T07:59:08.983Z,12.97
2017-04-25T08:00:06.957Z,13.94
2017-04-25T08:01:04.888Z,13.04
2017-04-25T08:02:02.798Z,14.54
2017-04-25T08:03:00.730Z,13.71
2017-04-25T08:03:58.744Z,10.54
2017-04-25T08:04:56.691Z,10.86
2017-04-25T08:05:55.367Z,11.00
2017-04-25T08:06:53.301Z,11.11
2017-04-25T08:07:52.006Z,10.41
2017-04-25T08:08:50.244Z,10.01
2017-04-25T08:09:48.944Z,9.40
2017-04-25T08:10:46.846Z,10.94
2017-04-25T08:11:44.739Z,9.31
2017-04-25T08:12:42.641Z,10.00
2017-04-25T08:13:40.534Z,9.21
2017-04-25T08:14:38.474Z,10.73
2017-04-25T08:15:37.144Z,10.83
2017-04-25T08:16:35.054Z,10.74
2017-04-25T08:17:33.031Z,11.47
2017-04-25T08:18:30.945Z,10.00
2017-04-25T08:19:28.947Z,12.00
2017-04-25T08:20:27.618Z,11.36
2017-04-25T08:21:26.346Z,10.66
2017-04-25T08:22:24.298Z,10.96
2017-04-25T08:23:22.216Z,10.41
2017-04-25T08:24:20.119Z,10.33
2017-04-25T08:25:18.062Z,10.47
2017-04-25T08:26:15.971Z,9.90
2017-04-25T08:27:13.888Z,9.77
2017-04-25T08:28:11.795Z,9.64
2017-04-25T08:29:09.703Z,8.97
2017-04-25T08:30:08.343Z,8.74
2017-04-25T08:31:06.947Z,8.64
2017-04-25T08:32:05.723Z,8.69
2017-04-25T08:33:04.359Z,8.59
2017-04-25T08:34:02.268Z,9.47
2017-04-25T08:35:00.198Z,9.90
2017-04-25T08:35:58.187Z,8.94
2017-04-25T08:36:56.207Z,9.24
2017-04-25T08:37:54.911Z,9.43
2017-04-25T08:38:52.827Z,9.00
2017-04-25T08:39:51.471Z,9.03
2017-04-25T08:40:49.423Z,8.97
2017-04-25T08:41:47.324Z,9.69
2017-04-25T08:42:45.234Z,9.69
2017-04-25T08:43:43.148Z,10.61
2017-04-25T08:44:41.081Z,9.90
2017-04-25T08:45:39.016Z,10.17
2017-04-25T08:46:36.906Z,10.19
2017-04-25T08:47:34.859Z,9.14
2017-04-25T08:48:32.754Z,10.71
2017-04-25T08:49:31.414Z,11.03
2017-04-25T08:50:29.358Z,10.03
2017-04-25T08:51:27.387Z,10.14
2017-04-25T08:52:25.367Z,10.91
2017-04-25T08:53:23.326Z,11.07
2017-04-25T08:54:21.232Z,8.56
2017-04-25T08:55:19.128Z,9.13
2017-04-25T08:56:17.018Z,9.81
2017-04-25T08:57:14.967Z,9.79
2017-04-25T08:58:12.881Z,9.96
2017-04-25T08:59:10.791Z,10.00
2017-04-25T09:00:08.695Z,10.21
2017-04-25T09:01:06.614Z,10.37
2017-04-25T09:02:04.511Z,10.81
2017-04-25T09:03:03.207Z,10.09
2017-04-25T09:04:01.524Z,10.39
2017-04-25T09:04:59.474Z,11.17
2017-04-25T09:05:57.430Z,10.99
2017-04-25T09:06:55.392Z,10.76
2017-04-25T09:07:53.355Z,9.89
2017-04-25T09:08:52.038Z,9.87
2017-04-25T09:09:50.671Z,10.69
2017-04-25T09:10:48.567Z,11.59
2017-04-25T09:11:46.479Z,11.44
2017-04-25T09:12:44.383Z,10.73
2017-04-25T09:13:42.367Z,11.74
2017-04-25T09:14:40.292Z,11.39
2017-04-25T09:15:38.227Z,12.06
2017-04-25T09:16:36.151Z,12.10
2017-04-25T09:17:34.060Z,12.37
2017-04-25T09:18:31.993Z,12.67
2017-04-25T09:19:30.287Z,11.76
2017-04-25T09:20:28.243Z,11.89
2017-04-25T09:21:26.216Z,12.39
2017-04-25T09:22:24.170Z,14.56
2017-04-25T09:23:22.079Z,12.70
2017-04-25T09:24:20.043Z,12.00
2017-04-25T09:25:18.030Z,11.79
2017-04-25T09:26:15.940Z,14.10
2017-04-25T09:27:13.832Z,14.54
2017-04-25T09:28:13.128Z,15.13
2017-04-25T09:29:11.065Z,13.11
2017-04-25T09:30:08.972Z,15.53
2017-04-25T09:31:06.898Z,15.20
2017-04-25T09:32:04.819Z,16.30
2017-04-25T09:33:02.767Z,18.33
2017-04-25T09:34:00.670Z,16.89
2017-04-25T09:34:58.628Z,17.57
2017-04-25T09:35:56.618Z,17.59
2017-04-25T09:36:54.549Z,17.26
2017-04-25T09:37:52.468Z,19.24
2017-04-25T09:38:51.111Z,19.03
2017-04-25T09:39:49.019Z,18.57
2017-04-25T09:40:47.023Z,19.54
2017-04-25T09:41:44.932Z,17.87
2017-04-25T09:42:42.840Z,19.49
2017-04-25T09:43:41.487Z,18.41
2017-04-25T09:44:39.392Z,18.53
2017-04-25T09:45:37.290Z,18.73
2017-04-25T09:46:35.238Z,17.86
2017-04-25T09:47:33.143Z,19.43
2017-04-25T09:48:31.073Z,17.84
2017-04-25T09:49:29.731Z,18.84
2017-04-25T09:50:27.658Z,17.53
2017-04-25T09:51:25.652Z,17.46
2017-04-25T09:52:23.575Z,17.27
2017-04-25T09:53:21.471Z,18.86
2017-04-25T09:54:19.379Z,18.06
2017-04-25T09:55:17.299Z,17.86
2017-04-25T09:56:15.252Z,17.00
2017-04-25T09:57:13.168Z,17.51
2017-04-25T09:58:11.071Z,17.69
2017-04-25T09:59:08.958Z,16.56
2017-04-25T10:00:07.647Z,16.24
2017-04-25T10:01:06.350Z,15.61
2017-04-25T10:02:04.299Z,16.47
2017-04-25T10:03:02.207Z,15.71
2017-04-25T10:04:01.373Z,15.33
2017-04-25T10:04:59.294Z,14.81
2017-04-25T10:05:57.258Z,14.06
2017-04-25T10:06:55.272Z,15.11
2017-04-25T10:07:53.206Z,15.24
2017-04-25T10:08:51.855Z,16.56
2017-04-25T10:09:49.750Z,13.43
2017-04-25T10:10:47.659Z,14.59
2017-04-25T10:11:45.552Z,16.30
2017-04-25T10:12:43.507Z,14.60
2017-04-25T10:13:41.483Z,14.59
2017-04-25T10:14:39.401Z,13.01
2017-04-25T10:15:37.351Z,14.14
2017-04-25T10:16:36.011Z,12.61
2017-04-25T10:17:34.724Z,12.17
2017-04-25T10:18:32.635Z,12.86
2017-04-25T10:19:31.315Z,11.77
2017-04-25T10:20:30.029Z,11.41
2017-04-25T10:21:27.971Z,11.36
2017-04-25T10:22:26.087Z,11.93
2017-04-25T10:23:24.764Z,11.70
2017-04-25T10:24:22.668Z,10.81
2017-04-25T10:25:20.583Z,11.54
2017-04-25T10:26:18.483Z,12.30
2017-04-25T10:27:16.479Z,10.96
2017-04-25T10:28:14.394Z,11.04
2017-04-25T10:29:12.308Z,12.00
2017-04-25T10:30:10.232Z,12.79
2017-04-25T10:31:08.126Z,14.09
2017-04-25T10:32:06.082Z,15.83
2017-04-25T10:33:04.023Z,14.47
2017-04-25T10:34:01.998Z,15.19
2017-04-25T10:35:00.732Z,16.06
2017-04-25T10:35:58.940Z,14.43
2017-04-25T10:36:56.920Z,15.57
2017-04-25T10:37:54.975Z,16.43
2017-04-25T10:38:53.643Z,16.21
2017-04-25T10:39:52.328Z,17.57
2017-04-25T10:40:50.252Z,17.70
2017-04-25T10:41:48.159Z,17.83
2017-04-25T10:42:46.075Z,18.33
2017-04-25T10:43:44.372Z,18.40
2017-04-25T10:44:42.331Z,18.00
2017-04-25T10:45:40.267Z,18.30
2017-04-25T10:46:38.171Z,18.94
2017-04-25T10:47:36.083Z,18.09
2017-04-25T10:48:34.038Z,19.21
2017-04-25T10:49:31.930Z,17.41
2017-04-25T10:50:29.928Z,18.71
2017-04-25T10:51:27.935Z,17.69
2017-04-25T10:52:25.897Z,19.13
2017-04-25T10:53:24.643Z,19.99
2017-04-25T10:54:22.559Z,17.94
2017-04-25T10:55:20.462Z,18.19
2017-04-25T10:56:18.445Z,18.13
2017-04-25T10:57:17.088Z,17.93
2017-04-25T10:58:14.984Z,17.04
2017-04-25T10:59:12.898Z,17.11
2017-04-25T11:00:10.798Z,18.84
2017-04-25T11:01:08.721Z,17.13
2017-04-25T11:02:06.687Z,17.24
2017-04-25T11:03:04.587Z,19.20
2017-04-25T11:04:02.491Z,17.13
2017-04-25T11:05:00.386Z,18.10
2017-04-25T11:05:58.319Z,17.89
2017-04-25T11:06:56.339Z,17.26
2017-04-25T11:07:55.024Z,17.33
2017-04-25T11:08:53.265Z,18.46
2017-04-25T11:09:51.908Z,16.86
2017-04-25T11:10:49.806Z,17.24
2017-04-25T11:11:47.754Z,18.67
2017-04-25T11:12:45.681Z,17.54
2017-04-25T11:13:43.582Z,16.63
2017-04-25T11:14:41.490Z,16.13
2017-04-25T11:15:39.434Z,14.90
2017-04-25T11:16:37.335Z,15.24
2017-04-25T11:17:35.296Z,15.21
2017-04-25T11:18:33.215Z,15.06
2017-04-25T11:19:31.915Z,15.14
2017-04-25T11:20:29.843Z,14.96
2017-04-25T11:21:27.801Z,12.60
2017-04-25T11:22:25.821Z,12.76
2017-04-25T11:23:23.791Z,11.79
2017-04-25T11:24:22.439Z,11.64
2017-04-25T11:25:20.343Z,11.86
2017-04-25T11:26:18.238Z,11.81
2017-04-25T11:27:16.180Z,11.39
2017-04-25T11:28:14.100Z,10.60
2017-04-25T11:29:12.035Z,10.23
2017-04-25T11:30:09.934Z,8.74
2017-04-25T11:31:07.834Z,9.73
2017-04-25T11:32:05.735Z,9.33
2017-04-25T11:33:03.719Z,8.63
2017-04-25T11:34:02.419Z,7.61
2017-04-25T11:35:00.331Z,7.90
2017-04-25T11:35:58.283Z,7.84
2017-04-25T11:36:56.235Z,6.54
2017-04-25T11:37:54.987Z,5.80
2017-04-25T11:38:52.887Z,5.90
2017-04-25T11:39:51.567Z,6.00
2017-04-25T11:40:49.475Z,4.87
2017-04-25T11:41:47.379Z,4.79
2017-04-25T11:42:45.319Z,4.81
2017-04-25T11:43:43.251Z,4.79
2017-04-25T11:44:41.896Z,4.87
2017-04-25T11:45:39.798Z,5.46
2017-04-25T11:46:37.722Z,4.44
2017-04-25T11:47:36.415Z,4.19
2017-04-25T11:48:34.329Z,3.71
2017-04-25T11:49:32.240Z,4.53
2017-04-25T11:50:30.142Z,4.09
2017-04-25T11:51:28.067Z,4.84
2017-04-25T11:52:25.997Z,5.74
2017-04-25T11:53:25.090Z,6.86
2017-04-25T11:54:23.036Z,7.07
2017-04-25T11:55:20.931Z,5.64
2017-04-25T11:56:18.831Z,5.44
2017-04-25T11:57:16.932Z,5.27
2017-04-25T11:58:14.868Z,5.86
2017-04-25T11:59:12.778Z,5.33
2017-04-25T12:00:10.691Z,4.19
2017-04-25T12:01:08.603Z,4.99
2017-04-25T12:02:06.527Z,4.56
2017-04-25T12:03:05.225Z,4.49
2017-04-25T12:04:03.111Z,3.24
2017-04-25T12:05:01.028Z,3.83
2017-04-25T12:05:58.938Z,3.94
2017-04-25T12:06:57.628Z,3.70
2017-04-25T12:07:55.594Z,4.30
2017-04-25T12:08:53.526Z,3.91
2017-04-25T12:09:52.172Z,4.46
2017-04-25T12:10:50.078Z,4.01
2017-04-25T12:11:47.974Z,3.74
2017-04-25T12:12:45.875Z,3.66
2017-04-25T12:13:43.836Z,3.59
2017-04-25T12:14:41.740Z,3.21
2017-04-25T12:15:39.636Z,4.17
2017-04-25T12:16:37.539Z,3.73
2017-04-25T12:17:35.889Z,3.67
2017-04-25T12:18:33.835Z,3.93
2017-04-25T12:19:31.791Z,3.79
2017-04-25T12:20:29.734Z,3.27
2017-04-25T12:21:27.667Z,4.06
2017-04-25T12:22:25.587Z,3.99
2017-04-25T12:23:24.304Z,4.01
2017-04-25T12:24:22.286Z,4.29
2017-04-25T12:25:20.194Z,5.09
2017-04-25T12:26:18.111Z,5.61
2017-04-25T12:27:16.769Z,4.30
2017-04-25T12:28:14.680Z,5.04
2017-04-25T12:29:12.645Z,5.51
2017-04-25T12:30:10.607Z,5.16
2017-04-25T12:31:08.535Z,4.64
2017-04-25T12:32:06.435Z,5.63
2017-04-25T12:33:05.091Z,4.81
2017-04-25T12:34:03.058Z,4.67
2017-04-25T12:35:02.062Z,4.77
2017-04-25T12:35:59.999Z,5.11
2017-04-25T12:36:58.780Z,5.56
2017-04-25T12:37:56.720Z,5.29
2017-04-25T12:38:55.424Z,6.53
2017-04-25T12:39:53.350Z,6.59
2017-04-25T12:40:52.117Z,6.20
2017-04-25T12:41:50.762Z,5.69